Time;durP1;ratioP1;P1;durP2;ratioP2;P2;SDS_P1;SDS_P2;PMS_P1;PMS_P2;Temp;Humidity;BMP_temperature;BMP_pressure;BME280_temperature;BME280_humidity;BME280_pressure;Samples;Min_cycle;Max_cycle;Signal;HPM_P1;HPM_P2
2021/07/18 00:00:54;;;;;;;2.85;1.70;;;;;;;;;;5070154;28;20042;-53
2021/07/18 00:03:19;;;;;;;6.68;1.80;;;;;;;;;;5054800;28;20040;-53
2021/07/18 00:05:44;;;;;;;2.20;1.60;;;;;;;;;;5054648;28;20027;-53
2021/07/18 00:08:10;;;;;;;5.72;1.60;;;;;;;;;;5054837;28;20016;-53
2021/07/18 00:10:35;;;;;;;3.05;1.60;;;;;;;;;;5054466;28;20033;-53
2021/07/18 00:13:01;;;;;;;2.45;1.50;;;;;;;;;;5053349;28;20017;-53
2021/07/18 00:15:27;;;;;;;5.65;1.58;;;;;;;;;;5054749;28;20538;-52
2021/07/18 00:17:52;;;;;;;6.88;2.00;;;;;;;;;;5054595;28;20017;-53
2021/07/18 00:20:17;;;;;;;2.28;1.67;;;;;;;;;;5054348;28;20426;-54
2021/07/18 00:22:43;;;;;;;3.65;1.20;;;;;;;;;;5054157;28;20043;-53
2021/07/18 00:25:09;;;;;;;3.83;1.83;;;;;;;;;;5054334;28;20036;-52
2021/07/18 00:27:35;;;;;;;3.88;1.95;;;;;;;;;;5054147;28;20069;-53
2021/07/18 00:30:00;;;;;;;3.28;1.98;;;;;;;;;;5054275;28;20115;-53
2021/07/18 00:32:26;;;;;;;3.00;1.70;;;;;;;;;;5054074;28;20110;-53
2021/07/18 00:34:51;;;;;;;5.43;1.73;;;;;;;;;;5054027;28;20075;-53
2021/07/18 00:37:16;;;;;;;2.83;1.65;;;;;;;;;;5052944;28;20032;-53
2021/07/18 00:39:42;;;;;;;3.30;1.67;;;;;;;;;;5069292;28;20036;-52
2021/07/18 00:42:07;;;;;;;3.78;1.50;;;;;;;;;;5054240;28;20013;-53
2021/07/18 00:44:32;;;;;;;4.47;2.00;;;;;;;;;;5053754;28;20128;-53
2021/07/18 00:46:58;;;;;;;3.97;1.50;;;;;;;;;;5054079;28;20021;-53
2021/07/18 00:49:23;;;;;;;2.65;1.73;;;;;;;;;;5053971;28;20485;-53
2021/07/18 00:51:48;;;;;;;3.67;1.48;;;;;;;;;;5053467;28;20092;-53
2021/07/18 00:54:15;;;;;;;6.40;1.65;;;;;;;;;;5054041;28;20108;-52
2021/07/18 00:56:41;;;;;;;6.10;2.20;;;;;;;;;;5053668;28;20033;-52
2021/07/18 00:59:06;;;;;;;4.10;2.28;;;;;;;;;;5053518;28;20438;-53
2021/07/18 01:01:32;;;;;;;4.22;2.00;;;;;;;;;;5053796;28;20057;-53
2021/07/18 01:03:57;;;;;;;1.52;1.40;;;;;;;;;;5053427;28;20067;-53
2021/07/18 01:06:24;;;;;;;1.70;1.60;;;;;;;;;;5053556;28;20017;-53
2021/07/18 01:08:50;;;;;;;4.03;1.50;;;;;;;;;;5053442;28;20032;-53
2021/07/18 01:11:15;;;;;;;8.10;1.95;;;;;;;;;;5053656;28;20094;-52
2021/07/18 01:13:41;;;;;;;2.92;1.80;;;;;;;;;;5053421;28;20418;-53
2021/07/18 01:16:06;;;;;;;5.47;1.80;;;;;;;;;;5053580;28;20017;-53
2021/07/18 01:18:31;;;;;;;4.43;2.17;;;;;;;;;;5052044;28;20029;-53
2021/07/18 01:20:57;;;;;;;2.53;2.08;;;;;;;;;;5053245;28;20380;-53
2021/07/18 01:23:22;;;;;;;4.05;1.77;;;;;;;;;;5052977;28;20086;-52
2021/07/18 01:25:52;;;;;;;7.50;1.77;;;;;;;;;;5053386;28;20023;-53
2021/07/18 01:28:18;;;;;;;2.63;1.90;;;;;;;;;;5053107;28;20025;-53
2021/07/18 01:30:44;;;;;;;4.85;1.70;;;;;;;;;;5068329;28;20577;-53
2021/07/18 01:33:09;;;;;;;3.40;1.58;;;;;;;;;;5053047;28;20468;-52
2021/07/18 01:35:34;;;;;;;5.10;1.70;;;;;;;;;;5051587;28;20033;-53
2021/07/18 01:38:00;;;;;;;1.95;1.40;;;;;;;;;;5053258;28;20028;-52
2021/07/18 01:40:25;;;;;;;2.65;1.50;;;;;;;;;;5053227;28;20024;-53
2021/07/18 01:42:51;;;;;;;5.57;1.77;;;;;;;;;;5052720;28;20471;-53
2021/07/18 01:45:17;;;;;;;2.08;1.50;;;;;;;;;;5053126;28;20017;-53
2021/07/18 01:47:44;;;;;;;2.05;1.60;;;;;;;;;;5052908;28;20040;-53
2021/07/18 01:50:11;;;;;;;3.75;2.17;;;;;;;;;;5052575;28;20052;-52
2021/07/18 01:52:36;;;;;;;3.80;2.17;;;;;;;;;;5052582;28;20028;-52
2021/07/18 01:55:02;;;;;;;4.95;1.83;;;;;;;;;;5052568;28;20040;-52
2021/07/18 01:57:27;;;;;;;2.58;1.67;;;;;;;;;;5051442;28;20079;-53
2021/07/18 01:59:53;;;;;;;3.95;1.70;;;;;;;;;;5052483;28;20016;-53
2021/07/18 02:02:18;;;;;;;4.75;1.73;;;;;;;;;;5052523;28;20025;-53
2021/07/18 02:04:47;;;;;;;7.78;1.85;;;;;;;;;;5052576;28;20032;-52
2021/07/18 02:07:13;;;;;;;9.65;2.00;;;;;;;;;;5052410;28;20071;-51
2021/07/18 02:09:38;;;;;;;6.30;1.75;;;;;;;;;;5052436;28;20021;-53
2021/07/18 02:12:06;;;;;;;4.90;1.48;;;;;;;;;;5052300;28;20112;-52
2021/07/18 02:14:31;;;;;;;2.22;1.42;;;;;;;;;;5052287;28;20024;-54
2021/07/18 02:16:57;;;;;;;3.30;1.55;;;;;;;;;;5052701;28;20025;-53
2021/07/18 02:19:26;;;;;;;6.38;1.73;;;;;;;;;;5052301;28;20520;-53
2021/07/18 02:21:52;;;;;;;3.63;1.95;;;;;;;;;;5067620;28;20036;-53
2021/07/18 02:24:17;;;;;;;10.55;2.30;;;;;;;;;;5052185;28;20030;-54
2021/07/18 02:26:42;;;;;;;8.02;2.10;;;;;;;;;;5052247;28;20025;-53
2021/07/18 02:29:08;;;;;;;1.95;1.40;;;;;;;;;;5052285;28;20443;-53
2021/07/18 02:31:33;;;;;;;4.72;2.60;;;;;;;;;;5052087;28;20108;-53
2021/07/18 02:33:58;;;;;;;2.80;1.50;;;;;;;;;;5052230;28;20017;-52
2021/07/18 02:36:24;;;;;;;6.25;2.05;;;;;;;;;;5055358;28;20028;-53
2021/07/18 02:38:50;;;;;;;3.90;1.83;;;;;;;;;;5054951;28;20025;-53
2021/07/18 02:41:15;;;;;;;4.00;1.63;;;;;;;;;;5056310;28;20471;-53
2021/07/18 02:43:41;;;;;;;5.28;1.45;;;;;;;;;;5056021;28;20036;-53
2021/07/18 02:46:06;;;;;;;9.45;1.48;;;;;;;;;;5056160;28;20029;-53
2021/07/18 02:48:33;;;;;;;2.10;1.27;;;;;;;;;;5056117;28;20100;-53
2021/07/18 02:50:58;;;;;;;1.90;1.50;;;;;;;;;;5055871;28;20124;-52
2021/07/18 02:53:24;;;;;;;6.38;1.45;;;;;;;;;;5056330;28;20130;-53
2021/07/18 02:55:49;;;;;;;3.42;1.40;;;;;;;;;;5055884;28;20060;-53
2021/07/18 02:58:14;;;;;;;2.10;1.30;;;;;;;;;;5055988;28;20031;-52
2021/07/18 03:00:40;;;;;;;2.15;1.23;;;;;;;;;;5055750;28;20029;-52
2021/07/18 03:03:06;;;;;;;1.63;1.40;;;;;;;;;;5055702;28;20099;-53
2021/07/18 03:05:31;;;;;;;4.75;1.83;;;;;;;;;;5055509;28;20036;-54
2021/07/18 03:07:57;;;;;;;2.53;1.50;;;;;;;;;;5055912;28;20025;-53
2021/07/18 03:10:23;;;;;;;3.45;1.30;;;;;;;;;;5055923;28;20369;-54
2021/07/18 03:12:49;;;;;;;6.30;1.50;;;;;;;;;;5055627;28;20017;-54
2021/07/18 03:15:15;;;;;;;1.83;1.35;;;;;;;;;;5055572;28;20379;-53
2021/07/18 03:17:40;;;;;;;5.47;1.60;;;;;;;;;;5055566;28;20452;-53
2021/07/18 03:20:07;;;;;;;5.55;1.73;;;;;;;;;;5055819;28;20036;-53
2021/07/18 03:22:32;;;;;;;6.32;1.75;;;;;;;;;;5055239;28;20041;-54
2021/07/18 03:24:59;;;;;;;5.85;2.15;;;;;;;;;;5055503;28;20071;-53
2021/07/18 03:27:24;;;;;;;2.97;1.85;;;;;;;;;;5054128;28;20482;-53
2021/07/18 03:29:49;;;;;;;5.78;1.70;;;;;;;;;;5055283;28;20036;-53
2021/07/18 03:32:15;;;;;;;2.63;1.70;;;;;;;;;;5055383;28;20017;-53
2021/07/18 03:34:40;;;;;;;5.30;1.70;;;;;;;;;;5055062;28;20148;-53
2021/07/18 03:37:05;;;;;;;4.03;1.95;;;;;;;;;;5055249;28;20062;-53
2021/07/18 03:39:31;;;;;;;2.25;1.67;;;;;;;;;;5055349;28;20033;-54
2021/07/18 03:41:57;;;;;;;3.25;1.55;;;;;;;;;;5055368;28;20100;-53
2021/07/18 03:44:22;;;;;;;2.92;1.65;;;;;;;;;;5055330;28;20163;-53
2021/07/18 03:46:47;;;;;;;4.00;1.30;;;;;;;;;;5054825;28;20083;-54
2021/07/18 03:49:14;;;;;;;7.55;1.50;;;;;;;;;;5055285;28;20029;-52
2021/07/18 03:51:40;;;;;;;2.45;0.80;;;;;;;;;;5054653;28;20049;-53
2021/07/18 03:54:05;;;;;;;2.22;0.90;;;;;;;;;;5070380;28;20044;-53
2021/07/18 03:56:32;;;;;;;4.80;1.23;;;;;;;;;;5055101;28;20376;-54
2021/07/18 03:58:57;;;;;;;5.32;1.40;;;;;;;;;;5054885;28;20033;-53
2021/07/18 04:01:22;;;;;;;3.90;1.55;;;;;;;;;;5055056;28;20455;-53
2021/07/18 04:03:48;;;;;;;4.80;0.90;;;;;;;;;;5054662;28;20033;-53
2021/07/18 04:06:14;;;;;;;0.82;0.60;;;;;;;;;;5054886;28;20019;-53
2021/07/18 04:08:39;;;;;;;4.55;1.05;;;;;;;;;;5054635;28;20071;-53
2021/07/18 04:11:05;;;;;;;4.57;0.98;;;;;;;;;;5054469;28;20025;-53
2021/07/18 04:13:30;;;;;;;5.00;1.35;;;;;;;;;;5069906;28;20071;-53
2021/07/18 04:15:55;;;;;;;2.33;0.82;;;;;;;;;;5054744;28;20021;-53
2021/07/18 04:18:21;;;;;;;3.33;0.95;;;;;;;;;;5054679;28;20054;-53
2021/07/18 04:20:46;;;;;;;3.58;1.27;;;;;;;;;;5054303;28;20078;-53
2021/07/18 04:23:11;;;;;;;3.55;1.13;;;;;;;;;;5054228;28;20051;-53
2021/07/18 04:25:37;;;;;;;0.93;0.70;;;;;;;;;;5052983;28;20032;-53
2021/07/18 04:28:02;;;;;;;1.30;1.20;;;;;;;;;;5054621;28;20070;-53
2021/07/18 04:30:27;;;;;;;1.60;0.90;;;;;;;;;;5054230;28;20087;-52
2021/07/18 04:32:53;;;;;;;1.17;0.70;;;;;;;;;;5054078;28;20036;-53
2021/07/18 04:35:19;;;;;;;2.20;1.00;;;;;;;;;;5054182;28;20028;-53
2021/07/18 04:37:45;;;;;;;0.85;0.63;;;;;;;;;;5054037;28;20627;-54
2021/07/18 04:40:13;;;;;;;2.08;1.10;;;;;;;;;;5054029;28;20104;-53
2021/07/18 04:42:39;;;;;;;1.58;1.02;;;;;;;;;;5053714;28;20036;-53
2021/07/18 04:45:05;;;;;;;4.03;1.13;;;;;;;;;;5054026;28;20017;-53
2021/07/18 04:47:30;;;;;;;2.53;1.13;;;;;;;;;;5054134;28;20025;-53
2021/07/18 04:49:56;;;;;;;6.80;1.20;;;;;;;;;;5053629;28;20103;-52
2021/07/18 04:52:21;;;;;;;1.40;1.00;;;;;;;;;;5069288;28;20116;-53
2021/07/18 04:54:46;;;;;;;1.80;1.15;;;;;;;;;;5053945;28;20033;-53
2021/07/18 04:57:12;;;;;;;2.97;1.40;;;;;;;;;;5053642;28;20459;-53
2021/07/18 04:59:37;;;;;;;1.25;0.95;;;;;;;;;;5053490;28;20020;-54
2021/07/18 05:02:03;;;;;;;3.40;1.25;;;;;;;;;;5053528;28;20483;-52
2021/07/18 05:04:28;;;;;;;7.93;1.33;;;;;;;;;;5053593;28;20025;-53
2021/07/18 05:06:53;;;;;;;5.03;1.25;;;;;;;;;;5053781;28;20460;-53
2021/07/18 05:09:19;;;;;;;4.30;1.40;;;;;;;;;;5053428;28;20469;-53
2021/07/18 05:11:44;;;;;;;1.92;1.45;;;;;;;;;;5053602;28;20036;-53
2021/07/18 05:14:09;;;;;;;1.70;1.23;;;;;;;;;;5053651;28;20376;-53
2021/07/18 05:16:35;;;;;;;4.57;1.10;;;;;;;;;;5053217;28;20387;-53
2021/07/18 05:19:00;;;;;;;4.00;1.45;;;;;;;;;;5053340;28;20108;-53
2021/07/18 05:21:26;;;;;;;4.47;2.17;;;;;;;;;;5053179;28;20036;-53
2021/07/18 05:23:51;;;;;;;2.45;0.90;;;;;;;;;;5053284;28;20033;-53
2021/07/18 05:26:16;;;;;;;3.05;1.35;;;;;;;;;;5053236;28;20033;-53
2021/07/18 05:28:42;;;;;;;4.25;1.23;;;;;;;;;;5053069;28;20021;-53
2021/07/18 05:31:07;;;;;;;6.03;1.40;;;;;;;;;;5053097;28;20027;-53
2021/07/18 05:33:32;;;;;;;7.70;1.50;;;;;;;;;;5053187;28;20020;-53
2021/07/18 05:35:58;;;;;;;2.92;0.77;;;;;;;;;;5052961;28;20040;-54
2021/07/18 05:38:23;;;;;;;2.75;0.90;;;;;;;;;;5052936;28;20025;-53
2021/07/18 05:40:49;;;;;;;5.03;1.83;;;;;;;;;;5052772;28;20032;-53
2021/07/18 05:43:14;;;;;;;2.90;2.05;;;;;;;;;;5051547;28;20029;-53
2021/07/18 05:45:39;;;;;;;3.88;1.05;;;;;;;;;;5052885;28;20086;-52
2021/07/18 05:48:05;;;;;;;2.08;1.40;;;;;;;;;;5052799;28;20463;-53
2021/07/18 05:50:30;;;;;;;1.35;1.10;;;;;;;;;;5052829;28;20041;-53
2021/07/18 05:52:56;;;;;;;2.50;1.02;;;;;;;;;;5051214;28;20394;-53
2021/07/18 05:55:23;;;;;;;5.32;1.42;;;;;;;;;;5053039;28;20040;-53
2021/07/18 05:57:48;;;;;;;1.83;1.33;;;;;;;;;;5052542;28;20021;-53
2021/07/18 06:00:14;;;;;;;4.40;1.48;;;;;;;;;;5052578;28;20028;-53
2021/07/18 06:02:40;;;;;;;4.35;1.23;;;;;;;;;;5052642;28;20016;-53
2021/07/18 06:05:06;;;;;;;1.77;1.33;;;;;;;;;;5051322;28;20091;-53
2021/07/18 06:07:32;;;;;;;3.28;1.10;;;;;;;;;;5052512;28;20025;-53
2021/07/18 06:09:57;;;;;;;5.68;1.60;;;;;;;;;;5051763;28;20116;-53
2021/07/18 06:12:22;;;;;;;2.60;1.50;;;;;;;;;;5052370;28;20410;-53
2021/07/18 06:14:48;;;;;;;4.13;1.30;;;;;;;;;;5052337;28;20062;-54
2021/07/18 06:17:13;;;;;;;2.70;1.30;;;;;;;;;;5052386;28;20436;-53
2021/07/18 06:19:39;;;;;;;6.97;1.48;;;;;;;;;;5052549;28;20029;-53
2021/07/18 06:22:05;;;;;;;8.05;2.47;;;;;;;;;;5052601;28;20586;-53
2021/07/18 06:24:30;;;;;;;2.03;1.20;;;;;;;;;;5052174;28;20033;-53
2021/07/18 06:26:55;;;;;;;1.95;1.38;;;;;;;;;;5052163;28;20490;-53
2021/07/18 06:29:21;;;;;;;3.38;0.88;;;;;;;;;;5052264;28;20029;-53
2021/07/18 06:31:46;;;;;;;4.22;1.25;;;;;;;;;;5052103;28;20017;-53
2021/07/18 06:34:12;;;;;;;1.70;1.10;;;;;;;;;;5052277;28;20033;-53
2021/07/18 06:36:37;;;;;;;3.20;1.50;;;;;;;;;;5052033;28;20021;-55
2021/07/18 06:39:02;;;;;;;5.38;1.70;;;;;;;;;;5052236;28;20109;-53
2021/07/18 06:41:28;;;;;;;6.15;1.55;;;;;;;;;;5052110;28;20352;-53
2021/07/18 06:43:53;;;;;;;5.38;1.52;;;;;;;;;;5052243;28;20048;-52
2021/07/18 06:46:19;;;;;;;2.60;1.73;;;;;;;;;;5052419;28;20021;-53
2021/07/18 06:48:44;;;;;;;4.07;1.90;;;;;;;;;;5052155;28;20430;-53
2021/07/18 06:51:09;;;;;;;3.60;1.20;;;;;;;;;;5051900;28;20096;-53
2021/07/18 06:53:35;;;;;;;2.45;1.40;;;;;;;;;;5051998;28;20021;-53
2021/07/18 06:56:00;;;;;;;3.38;2.00;;;;;;;;;;5052150;28;20091;-53
2021/07/18 06:58:26;;;;;;;5.50;1.48;;;;;;;;;;5052056;28;20498;-53
2021/07/18 07:00:51;;;;;;;3.00;1.63;;;;;;;;;;5051884;28;20095;-54
2021/07/18 07:03:16;;;;;;;1.88;1.40;;;;;;;;;;5051836;28;20037;-53
2021/07/18 07:05:42;;;;;;;2.15;1.30;;;;;;;;;;5052136;28;20024;-53
2021/07/18 07:08:07;;;;;;;2.88;1.90;;;;;;;;;;5051897;28;20040;-53
2021/07/18 07:10:33;;;;;;;2.45;1.48;;;;;;;;;;5051901;28;20081;-53
2021/07/18 07:12:58;;;;;;;1.63;1.25;;;;;;;;;;5051681;28;20075;-52
2021/07/18 07:15:23;;;;;;;2.05;1.50;;;;;;;;;;5051770;28;20375;-53
2021/07/18 07:17:49;;;;;;;3.58;1.63;;;;;;;;;;5050789;28;20029;-52
2021/07/18 07:20:14;;;;;;;3.40;1.70;;;;;;;;;;5051746;28;20053;-52
2021/07/18 07:22:40;;;;;;;2.95;1.50;;;;;;;;;;5054831;28;20029;-52
2021/07/18 07:25:07;;;;;;;3.88;2.03;;;;;;;;;;5055754;28;20226;-52
2021/07/18 07:27:33;;;;;;;3.00;1.30;;;;;;;;;;5055726;28;20028;-53
2021/07/18 07:29:58;;;;;;;1.60;1.23;;;;;;;;;;5055430;28;20020;-52
2021/07/18 07:32:24;;;;;;;2.10;1.48;;;;;;;;;;5055233;28;20032;-53
2021/07/18 07:34:49;;;;;;;2.30;1.60;;;;;;;;;;5055470;28;20112;-52
2021/07/18 07:37:15;;;;;;;2.60;1.40;;;;;;;;;;5055588;28;20360;-53
2021/07/18 07:39:40;;;;;;;1.88;1.02;;;;;;;;;;5055018;28;20474;-53
2021/07/18 07:42:06;;;;;;;1.27;0.88;;;;;;;;;;5055239;28;20041;-53
2021/07/18 07:44:31;;;;;;;2.95;1.00;;;;;;;;;;5055056;28;20054;-53
2021/07/18 07:46:57;;;;;;;1.63;1.13;;;;;;;;;;5054874;28;20035;-53
2021/07/18 07:49:22;;;;;;;2.72;1.40;;;;;;;;;;5055128;28;20017;-54
2021/07/18 07:51:47;;;;;;;6.30;1.60;;;;;;;;;;5054650;28;20087;-54
2021/07/18 07:54:13;;;;;;;2.58;1.23;;;;;;;;;;5070772;28;20497;-53
2021/07/18 07:56:38;;;;;;;3.17;1.90;;;;;;;;;;5054888;28;20096;-52
2021/07/18 07:59:04;;;;;;;2.60;1.50;;;;;;;;;;5054972;28;20197;-54
2021/07/18 08:01:29;;;;;;;4.53;1.13;;;;;;;;;;5055037;28;20491;-53
2021/07/18 08:03:54;;;;;;;1.95;1.38;;;;;;;;;;5053356;28;20087;-53
2021/07/18 08:06:20;;;;;;;3.38;1.45;;;;;;;;;;5054727;28;20112;-52
2021/07/18 08:08:45;;;;;;;4.03;2.13;;;;;;;;;;5054868;28;20029;-52
2021/07/18 08:11:10;;;;;;;3.28;1.55;;;;;;;;;;5054543;28;20029;-52
2021/07/18 08:13:36;;;;;;;6.50;1.70;;;;;;;;;;5054752;28;20036;-53
2021/07/18 08:16:02;;;;;;;3.88;1.38;;;;;;;;;;5054599;28;20123;-53
2021/07/18 08:18:27;;;;;;;4.25;1.27;;;;;;;;;;5053217;28;20056;-53
2021/07/18 08:20:53;;;;;;;1.95;1.60;;;;;;;;;;5054628;28;20078;-53
2021/07/18 08:23:18;;;;;;;3.50;1.83;;;;;;;;;;5054224;28;20025;-53
2021/07/18 08:25:44;;;;;;;2.35;1.60;;;;;;;;;;5054355;28;20387;-51
2021/07/18 08:28:09;;;;;;;2.00;1.48;;;;;;;;;;5054277;28;20459;-53
2021/07/18 08:30:36;;;;;;;2.60;1.83;;;;;;;;;;5054397;28;20029;-52
2021/07/18 08:33:01;;;;;;;3.50;2.17;;;;;;;;;;5053302;28;20017;-53
2021/07/18 08:35:27;;;;;;;4.32;2.30;;;;;;;;;;5054145;28;20487;-53
2021/07/18 08:37:52;;;;;;;4.75;2.10;;;;;;;;;;5054094;28;20013;-52
2021/07/18 08:40:17;;;;;;;7.57;2.65;;;;;;;;;;5054087;28;20051;-52
2021/07/18 08:42:43;;;;;;;2.00;1.50;;;;;;;;;;5053696;28;20086;-52
2021/07/18 08:45:09;;;;;;;4.30;1.65;;;;;;;;;;5054340;28;20112;-52
2021/07/18 08:47:35;;;;;;;2.67;1.20;;;;;;;;;;5054177;28;20025;-53
2021/07/18 08:50:00;;;;;;;2.67;1.50;;;;;;;;;;5053945;28;20406;-53
2021/07/18 08:52:26;;;;;;;2.42;1.80;;;;;;;;;;5054163;28;20044;-52
2021/07/18 08:54:52;;;;;;;4.68;1.65;;;;;;;;;;5053943;28;20021;-54
2021/07/18 08:57:19;;;;;;;4.85;1.98;;;;;;;;;;5053649;28;20478;-53
2021/07/18 08:59:45;;;;;;;7.28;2.53;;;;;;;;;;5053636;28;20036;-53
2021/07/18 09:02:10;;;;;;;5.28;2.78;;;;;;;;;;5053563;28;20017;-52
2021/07/18 09:04:35;;;;;;;2.30;1.90;;;;;;;;;;5053703;28;20380;-53
2021/07/18 09:07:05;;;;;;;3.83;1.95;;;;;;;;;;5053728;28;20017;-53
2021/07/18 09:09:31;;;;;;;3.83;2.30;;;;;;;;;;5053834;28;20380;-54
2021/07/18 09:12:01;;;;;;;5.47;3.13;;;;;;;;;;5053538;28;20352;-52
2021/07/18 09:14:44;;;;;;;4.07;2.08;;;;;;;;;;5053460;28;20048;-52
2021/07/18 09:17:11;;;;;;;6.35;2.45;;;;;;;;;;5053345;28;20551;-52
2021/07/18 09:19:38;;;;;;;5.55;2.10;;;;;;;;;;5053495;28;20043;-52
2021/07/18 09:22:04;;;;;;;1.80;1.25;;;;;;;;;;5052355;28;20035;-53
2021/07/18 09:24:31;;;;;;;5.90;1.98;;;;;;;;;;5053302;28;20032;-52
2021/07/18 09:27:02;;;;;;;6.05;2.35;;;;;;;;;;5053000;28;20025;-51
2021/07/18 09:29:28;;;;;;;3.17;2.13;;;;;;;;;;5053089;28;20032;-53
2021/07/18 09:32:01;;;;;;;3.15;1.73;;;;;;;;;;5052990;28;20066;-53
2021/07/18 09:34:31;;;;;;;5.05;2.20;;;;;;;;;;5052983;28;20086;-53
2021/07/18 09:37:02;;;;;;;12.55;2.53;;;;;;;;;;5053199;28;20037;-53
2021/07/18 09:39:28;;;;;;;4.82;3.10;;;;;;;;;;5052890;28;20041;-53
2021/07/18 09:41:57;;;;;;;4.00;2.72;;;;;;;;;;5053047;28;20024;-52
2021/07/18 09:44:23;;;;;;;3.65;3.15;;;;;;;;;;5052946;28;20037;-53
2021/07/18 09:46:48;;;;;;;6.75;3.53;;;;;;;;;;5052662;28;20374;-53
2021/07/18 09:49:40;;;;;;;6.35;2.10;;;;;;;;;;5051588;28;20085;-53
2021/07/18 09:52:12;;;;;;;4.38;3.00;;;;;;;;;;5051364;28;20052;-53
2021/07/18 09:54:37;;;;;;;4.50;3.13;;;;;;;;;;5052905;28;20417;-53
2021/07/18 09:57:02;;;;;;;5.43;2.72;;;;;;;;;;5052868;28;20066;-52
2021/07/18 09:59:28;;;;;;;7.50;3.08;;;;;;;;;;5052933;28;20498;-54
2021/07/18 10:01:54;;;;;;;4.03;2.67;;;;;;;;;;5052441;28;20028;-53
2021/07/18 10:04:19;;;;;;;6.25;3.90;;;;;;;;;;5052427;28;20041;-53
2021/07/18 10:06:45;;;;;;;5.03;3.13;;;;;;;;;;5052462;28;20024;-54
2021/07/18 10:09:12;;;;;;;7.95;2.80;;;;;;;;;;5052339;28;20041;-54
2021/07/18 10:11:38;;;;;;;12.75;3.47;;;;;;;;;;5051112;28;20024;-54
2021/07/18 10:14:05;;;;;;;5.43;3.72;;;;;;;;;;5052394;28;20028;-53
2021/07/18 10:16:32;;;;;;;6.45;3.95;;;;;;;;;;5052355;28;20028;-53
2021/07/18 10:18:57;;;;;;;4.55;3.28;;;;;;;;;;5052602;28;20391;-54
2021/07/18 10:21:24;;;;;;;5.32;3.60;;;;;;;;;;5052213;28;20016;-53
2021/07/18 10:23:50;;;;;;;8.05;4.43;;;;;;;;;;5052389;28;20033;-53
2021/07/18 10:26:17;;;;;;;10.02;4.63;;;;;;;;;;5052301;28;20099;-53
2021/07/18 10:28:43;;;;;;;5.63;3.83;;;;;;;;;;5052039;28;20502;-54
2021/07/18 10:31:13;;;;;;;7.32;4.30;;;;;;;;;;5052496;28;20013;-54
2021/07/18 10:33:41;;;;;;;7.15;3.60;;;;;;;;;;5052348;28;20418;-54
2021/07/18 10:36:07;;;;;;;6.32;4.47;;;;;;;;;;5051235;28;20442;-54
2021/07/18 10:38:35;;;;;;;8.38;3.28;;;;;;;;;;5052423;28;20109;-54
2021/07/18 10:41:01;;;;;;;6.82;4.45;;;;;;;;;;5052121;28;20444;-54
2021/07/18 10:43:33;;;;;;;8.02;4.10;;;;;;;;;;5052302;28;20043;-54
2021/07/18 10:45:59;;;;;;;6.80;4.28;;;;;;;;;;5052071;28;20033;-54
2021/07/18 10:48:39;;;;;;;10.65;5.13;;;;;;;;;;5052133;28;20017;-54
2021/07/18 10:51:05;;;;;;;6.75;3.92;;;;;;;;;;5051823;28;20123;-55
2021/07/18 10:53:33;;;;;;;9.82;3.88;;;;;;;;;;5052081;28;20124;-55
2021/07/18 10:56:01;;;;;;;5.05;3.40;;;;;;;;;;5052711;28;20115;-56
2021/07/18 10:58:38;;;;;;;5.15;3.72;;;;;;;;;;5056253;28;20078;-55
2021/07/18 11:01:04;;;;;;;7.47;3.90;;;;;;;;;;5055867;28;20043;-55
2021/07/18 11:03:33;;;;;;;7.47;3.38;;;;;;;;;;5054566;28;20029;-54
2021/07/18 11:06:19;;;;;;;8.25;3.40;;;;;;;;;;5055957;28;20371;-55
2021/07/18 11:09:03;;;;;;;4.82;3.40;;;;;;;;;;5055851;28;20027;-55
2021/07/18 11:11:48;;;;;;;4.95;3.30;;;;;;;;;;5055929;28;20020;-55
2021/07/18 11:14:20;;;;;;;7.65;3.45;;;;;;;;;;5055355;28;20041;-55
2021/07/18 11:16:46;;;;;;;6.38;4.05;;;;;;;;;;5055672;28;20070;-55
2021/07/18 11:19:38;;;;;;;9.38;3.22;;;;;;;;;;5055522;28;20025;-54
2021/07/18 11:22:05;;;;;;;6.90;4.05;;;;;;;;;;5046940;28;20453;-54
2021/07/18 11:24:45;;;;;;;4.80;2.75;;;;;;;;;;5055436;28;20149;-55
2021/07/18 11:27:27;;;;;;;6.05;4.13;;;;;;;;;;5055405;28;20036;-55
2021/07/18 11:29:53;;;;;;;5.07;3.63;;;;;;;;;;5055372;28;20120;-55
2021/07/18 11:32:22;;;;;;;6.97;3.42;;;;;;;;;;5055330;28;20017;-55
2021/07/18 11:34:47;;;;;;;3.92;2.60;;;;;;;;;;5055157;28;20475;-55
2021/07/18 11:37:14;;;;;;;5.85;3.88;;;;;;;;;;5055631;28;20071;-55
2021/07/18 11:39:42;;;;;;;6.38;3.97;;;;;;;;;;5053852;28;20083;-55
2021/07/18 11:42:09;;;;;;;5.78;4.38;;;;;;;;;;5054938;28;20088;-55
2021/07/18 11:44:35;;;;;;;5.70;3.33;;;;;;;;;;5055136;28;20099;-54
2021/07/18 11:47:02;;;;;;;5.00;3.28;;;;;;;;;;5055191;28;20368;-54
2021/07/18 11:49:28;;;;;;;4.78;3.53;;;;;;;;;;5055141;28;20028;-55
2021/07/18 11:51:54;;;;;;;4.47;1.77;;;;;;;;;;5054677;28;20135;-55
2021/07/18 11:54:20;;;;;;;5.47;4.35;;;;;;;;;;5054968;28;20068;-55
2021/07/18 11:56:46;;;;;;;7.50;4.68;;;;;;;;;;5054928;28;20021;-54
2021/07/18 11:59:16;;;;;;;6.22;3.33;;;;;;;;;;5054867;28;20072;-54
2021/07/18 12:01:42;;;;;;;7.10;4.68;;;;;;;;;;5054698;28;20024;-54
2021/07/18 12:04:10;;;;;;;6.53;4.13;;;;;;;;;;5054723;28;20186;-55
2021/07/18 12:06:36;;;;;;;6.65;3.42;;;;;;;;;;5054777;28;20028;-55
2021/07/18 12:09:10;;;;;;;6.05;3.08;;;;;;;;;;5053297;28;20114;-54
2021/07/18 12:11:39;;;;;;;4.40;3.53;;;;;;;;;;5054909;28;20028;-55
2021/07/18 12:14:05;;;;;;;6.28;3.67;;;;;;;;;;5054657;28;20357;-55
2021/07/18 12:16:31;;;;;;;5.30;4.15;;;;;;;;;;5054794;28;20033;-55
2021/07/18 12:18:56;;;;;;;6.65;2.85;;;;;;;;;;5054517;28;20529;-55
2021/07/18 12:21:23;;;;;;;7.38;3.60;;;;;;;;;;5054418;28;20108;-55
2021/07/18 12:24:07;;;;;;;4.97;3.63;;;;;;;;;;5054135;28;20025;-55
2021/07/18 12:26:33;;;;;;;6.20;4.10;;;;;;;;;;5054319;28;20052;-55
2021/07/18 12:29:02;;;;;;;8.43;3.83;;;;;;;;;;5054295;28;20056;-55
2021/07/18 12:31:28;;;;;;;5.45;3.90;;;;;;;;;;5052846;28;20545;-55
2021/07/18 12:33:54;;;;;;;5.57;4.05;;;;;;;;;;5054466;28;20025;-55
2021/07/18 12:36:19;;;;;;;6.78;4.53;;;;;;;;;;5054198;28;20025;-55
2021/07/18 12:38:45;;;;;;;1.55;1.42;;;;;;;;;;5054090;28;20028;-55
2021/07/18 12:41:10;;;;;;;8.70;4.45;;;;;;;;;;5054047;28;20028;-55
2021/07/18 12:43:38;;;;;;;6.55;4.35;;;;;;;;;;5054180;28;20064;-55
2021/07/18 12:46:03;;;;;;;9.45;4.88;;;;;;;;;;5054001;28;20078;-55
2021/07/18 12:48:29;;;;;;;8.65;5.20;;;;;;;;;;5054268;28;20032;-55
2021/07/18 12:50:54;;;;;;;8.20;4.50;;;;;;;;;;5053543;28;20056;-56
2021/07/18 12:53:20;;;;;;;8.93;4.93;;;;;;;;;;5054176;28;20040;-55
2021/07/18 12:55:58;;;;;;;6.40;4.50;;;;;;;;;;5053682;28;20028;-55
2021/07/18 12:58:23;;;;;;;8.20;4.47;;;;;;;;;;5054058;28;20063;-55
2021/07/18 13:01:09;;;;;;;7.00;4.10;;;;;;;;;;5053541;28;20040;-55
2021/07/18 13:03:37;;;;;;;9.13;4.15;;;;;;;;;;5053559;28;20553;-55
2021/07/18 13:06:10;;;;;;;5.25;3.90;;;;;;;;;;5053439;28;20372;-55
2021/07/18 13:08:38;;;;;;;5.82;4.35;;;;;;;;;;5053870;28;20392;-54
2021/07/18 13:11:04;;;;;;;7.88;4.80;;;;;;;;;;5053333;28;20028;-54
2021/07/18 13:13:33;;;;;;;6.50;4.47;;;;;;;;;;5053700;28;20032;-55
2021/07/18 13:16:00;;;;;;;4.90;3.25;;;;;;;;;;5053430;28;20033;-55
2021/07/18 13:18:31;;;;;;;7.78;3.33;;;;;;;;;;5053059;28;20036;-55
2021/07/18 13:21:07;;;;;;;5.43;3.70;;;;;;;;;;5053386;28;20029;-54
2021/07/18 13:23:33;;;;;;;7.68;4.10;;;;;;;;;;5053213;28;20036;-55
2021/07/18 13:25:58;;;;;;;6.53;3.50;;;;;;;;;;5053228;28;20091;-55
2021/07/18 13:28:26;;;;;;;6.07;3.45;;;;;;;;;;5053134;28;20032;-57
2021/07/18 13:30:52;;;;;;;5.97;3.20;;;;;;;;;;5051779;28;20436;-55
2021/07/18 13:33:20;;;;;;;5.82;3.17;;;;;;;;;;5053408;28;20120;-55
2021/07/18 13:35:46;;;;;;;3.90;3.00;;;;;;;;;;5053108;28;20043;-55
2021/07/18 13:38:25;;;;;;;3.33;2.97;;;;;;;;;;5053114;28;20029;-55
2021/07/18 13:40:51;;;;;;;4.28;3.47;;;;;;;;;;5053026;28;20028;-55
2021/07/18 13:43:24;;;;;;;3.80;2.58;;;;;;;;;;5052881;28;20047;-54
2021/07/18 13:45:54;;;;;;;7.43;2.60;;;;;;;;;;5052785;28;20040;-55
2021/07/18 13:48:22;;;;;;;6.18;2.67;;;;;;;;;;5053020;28;20052;-55
2021/07/18 13:50:48;;;;;;;8.93;3.72;;;;;;;;;;5052573;28;20047;-55
2021/07/18 13:53:13;;;;;;;3.20;2.47;;;;;;;;;;5052893;28;20380;-55
2021/07/18 13:55:39;;;;;;;6.07;2.90;;;;;;;;;;5052893;28;20653;-54
2021/07/18 13:58:05;;;;;;;5.78;3.60;;;;;;;;;;5052619;28;20388;-55
2021/07/18 14:00:30;;;;;;;5.10;3.10;;;;;;;;;;5052846;28;20067;-54
2021/07/18 14:02:56;;;;;;;3.88;2.92;;;;;;;;;;5052612;28;20040;-55
2021/07/18 14:05:21;;;;;;;3.67;3.05;;;;;;;;;;5068113;28;20044;-55
2021/07/18 14:07:47;;;;;;;4.10;2.85;;;;;;;;;;5052435;28;20095;-55
2021/07/18 14:10:13;;;;;;;8.15;3.53;;;;;;;;;;5052374;28;20033;-55
2021/07/18 14:12:39;;;;;;;5.38;2.97;;;;;;;;;;5052128;28;20024;-55
2021/07/18 14:15:06;;;;;;;4.68;3.42;;;;;;;;;;5067842;28;20029;-55
2021/07/18 14:17:31;;;;;;;6.22;3.47;;;;;;;;;;5052580;28;20032;-55
2021/07/18 14:19:56;;;;;;;5.50;3.17;;;;;;;;;;5052589;28;20391;-55
2021/07/18 14:22:22;;;;;;;6.30;3.10;;;;;;;;;;5052575;28;20448;-55
2021/07/18 14:24:47;;;;;;;4.28;3.35;;;;;;;;;;5052343;28;20041;-55
2021/07/18 14:27:12;;;;;;;4.43;3.42;;;;;;;;;;5052592;28;20392;-55
2021/07/18 14:29:38;;;;;;;8.52;4.15;;;;;;;;;;5052198;28;20422;-55
2021/07/18 14:32:03;;;;;;;4.22;3.03;;;;;;;;;;5051550;28;20070;-55
2021/07/18 14:34:29;;;;;;;9.60;3.33;;;;;;;;;;5052460;28;20037;-55
2021/07/18 14:36:54;;;;;;;3.60;3.00;;;;;;;;;;5052117;28;20025;-55
2021/07/18 14:39:20;;;;;;;12.60;4.45;;;;;;;;;;5052433;28;20430;-54